Time;durP1;ratioP1;P1;durP2;ratioP2;P2;SDS_P1;SDS_P2;PMS_P1;PMS_P2;Temp;Humidity;BMP_temperature;BMP_pressure;BME280_temperature;BME280_humidity;BME280_pressure;Samples;Min_cycle;Max_cycle;Signal;HPM_P1;HPM_P2
2022/02/07 00:00:02;;;;;;;11.02;2.38;;;3.90;99.90;;;;;;5103324;28;20493;-88
2022/02/07 00:02:40;;;;;;;8.45;1.50;;;3.90;99.90;;;;;;5105771;28;20054;-89
2022/02/07 00:05:06;;;;;;;8.30;1.38;;;3.90;99.90;;;;;;5110265;28;20027;-88
2022/02/07 00:07:32;;;;;;;9.05;1.45;;;3.90;99.90;;;;;;5112139;28;20034;-88
2022/02/07 00:09:58;;;;;;;11.80;1.80;;;3.80;99.90;;;;;;5111310;28;20032;-90
2022/02/07 00:12:23;;;;;;;13.82;2.17;;;3.80;99.90;;;;;;5117098;28;20036;-90
2022/02/07 00:14:49;;;;;;;11.02;2.53;;;3.90;99.90;;;;;;5116199;28;20012;-90
2022/02/07 00:17:14;;;;;;;13.95;2.25;;;3.90;99.90;;;;;;5117167;28;20024;-91
2022/02/07 00:19:40;;;;;;;10.65;2.30;;;3.90;99.90;;;;;;5112270;28;20575;-89
2022/02/07 00:22:06;;;;;;;14.02;1.85;;;3.80;99.90;;;;;;5106680;28;20023;-89
2022/02/07 00:24:31;;;;;;;20.75;2.45;;;3.80;99.90;;;;;;5103470;28;20073;-89
2022/02/07 00:26:57;;;;;;;16.13;2.42;;;3.90;99.90;;;;;;5098919;28;20452;-90
2022/02/07 00:29:22;;;;;;;12.00;2.10;;;4.00;99.90;;;;;;5099606;28;20028;-89
2022/02/07 00:31:48;;;;;;;10.45;1.42;;;4.10;99.90;;;;;;5100008;28;20639;-89
2022/02/07 00:34:14;;;;;;;8.65;1.70;;;4.10;99.90;;;;;;5099972;28;20028;-90
2022/02/07 00:36:39;;;;;;;10.07;2.00;;;4.00;99.90;;;;;;5099044;28;20063;-89
2022/02/07 00:39:11;;;;;;;8.50;1.33;;;4.00;99.90;;;;;;5100509;28;20049;-89
2022/02/07 00:41:47;;;;;;;10.07;1.77;;;3.90;99.90;;;;;;5097207;28;20040;-89
2022/02/07 00:44:16;;;;;;;9.57;1.20;;;3.80;99.90;;;;;;5061691;28;20031;-89
2022/02/07 00:47:08;;;;;;;14.57;2.15;;;3.80;99.90;;;;;;5076415;28;20034;-89
2022/02/07 00:49:27;;;;;;;8.70;1.10;;;3.80;99.90;;;;;;5094042;28;20040;-89
2022/02/07 00:51:53;;;;;;;8.05;1.60;;;3.70;99.90;;;;;;5094506;28;20047;-88
2022/02/07 00:54:19;;;;;;;8.32;1.67;;;3.70;99.90;;;;;;5096179;28;20058;-89
2022/02/07 00:56:45;;;;;;;9.00;1.15;;;3.70;99.90;;;;;;5096147;28;20043;-88
2022/02/07 00:59:11;;;;;;;10.18;1.42;;;3.80;99.90;;;;;;5122563;27;20043;-90
2022/02/07 01:01:37;;;;;;;7.47;1.40;;;3.80;99.90;;;;;;5133987;27;20079;-89
2022/02/07 01:04:03;;;;;;;10.30;2.00;;;3.90;99.90;;;;;;5134155;27;20138;-88
2022/02/07 01:06:28;;;;;;;9.75;1.50;;;3.80;99.90;;;;;;5133698;27;20034;-89
2022/02/07 01:09:10;;;;;;;13.50;1.98;;;3.70;99.90;;;;;;5126305;27;20035;-90
2022/02/07 01:23:04;;;;;;;16.27;2.45;;;3.40;99.90;;;;;;5138174;27;20034;-89
2022/02/07 01:57:37;;;;;;;14.63;2.33;;;3.40;99.90;;;;;;5136490;27;20044;-89
2022/02/07 02:00:06;;;;;;;14.48;2.95;;;3.40;99.90;;;;;;5100219;28;20536;-89
2022/02/07 02:02:32;;;;;;;19.63;2.35;;;3.40;99.90;;;;;;5106148;28;20070;-89
2022/02/07 02:04:58;;;;;;;16.02;2.10;;;3.40;99.90;;;;;;5099784;28;20118;-88
2022/02/07 02:07:24;;;;;;;11.20;1.73;;;3.50;99.90;;;;;;5098054;28;20718;-88
2022/02/07 02:09:50;;;;;;;16.38;2.40;;;3.50;99.90;;;;;;5116365;28;20050;-89
2022/02/07 02:12:16;;;;;;;13.35;1.65;;;3.50;99.90;;;;;;5098081;28;20497;-88
2022/02/07 02:14:56;;;;;;;11.55;1.58;;;3.50;99.90;;;;;;5097876;28;20026;-89
2022/02/07 02:21:02;;;;;;;10.10;1.73;;;3.60;99.90;;;;;;5116604;28;20059;-89
2022/02/07 02:22:53;;;;;;;9.85;2.05;;;3.50;99.90;;;;;;5107645;28;20028;-88
2022/02/07 02:32:50;;;;;;;13.45;1.60;;;3.50;99.90;;;;;;5116633;28;20054;-88
2022/02/07 02:36:40;;;;;;;15.20;2.55;;;3.60;99.90;;;;;;5115948;28;20035;-91
2022/02/07 02:47:08;;;;;;;16.65;2.38;;;4.00;99.90;;;;;;5116011;28;20561;-89
2022/02/07 02:49:44;;;;;;;17.35;2.92;;;4.00;99.90;;;;;;5097639;28;20027;-89
2022/02/07 02:52:10;;;;;;;16.80;2.35;;;4.00;99.90;;;;;;5097540;28;20046;-89
2022/02/07 02:54:36;;;;;;;13.88;2.47;;;3.90;99.90;;;;;;5097707;28;20035;-88
2022/02/07 02:57:01;;;;;;;15.38;2.05;;;3.90;99.90;;;;;;5097567;28;20469;-89
2022/02/07 02:59:27;;;;;;;10.45;1.90;;;3.80;99.90;;;;;;5116698;27;20047;-90
2022/02/07 03:01:52;;;;;;;16.17;2.28;;;3.70;99.90;;;;;;5117711;27;20059;-88
2022/02/07 03:04:18;;;;;;;16.52;2.45;;;3.70;99.90;;;;;;5117551;27;20083;-89
2022/02/07 03:06:44;;;;;;;18.65;2.47;;;3.70;99.90;;;;;;5117797;27;20031;-88
2022/02/07 03:09:13;;;;;;;17.35;2.63;;;3.80;99.90;;;;;;5117584;27;20034;-89
2022/02/07 03:11:40;;;;;;;18.08;2.63;;;3.70;99.90;;;;;;5117751;27;20127;-89
2022/02/07 03:14:06;;;;;;;16.88;3.05;;;3.70;99.90;;;;;;5117789;27;20450;-90
2022/02/07 03:16:38;;;;;;;16.48;2.40;;;3.70;99.90;;;;;;5117562;27;20033;-89
2022/02/07 03:19:15;;;;;;;11.52;3.00;;;3.70;99.90;;;;;;5117563;27;20125;-89
2022/02/07 03:21:42;;;;;;;15.07;2.45;;;3.70;99.90;;;;;;5117408;27;20515;-89
2022/02/07 03:24:09;;;;;;;14.98;2.38;;;3.80;99.90;;;;;;5117197;27;20039;-88
2022/02/07 03:26:38;;;;;;;11.93;2.55;;;3.70;99.90;;;;;;5117330;27;20039;-89
2022/02/07 03:29:05;;;;;;;15.00;2.10;;;3.80;99.90;;;;;;5117466;27;20032;-91
2022/02/07 03:31:30;;;;;;;13.80;2.20;;;3.80;99.90;;;;;;5117284;27;20080;-89
2022/02/07 03:33:56;;;;;;;13.45;1.63;;;3.80;99.90;;;;;;5117350;28;20031;-89
2022/02/07 03:36:21;;;;;;;21.90;2.20;;;3.70;99.90;;;;;;5117157;28;20019;-89
2022/02/07 03:38:48;;;;;;;20.45;3.47;;;3.80;99.90;;;;;;5117411;28;20043;-89
2022/02/07 03:41:14;;;;;;;14.15;2.95;;;3.80;99.90;;;;;;5117336;28;20023;-89
2022/02/07 03:43:39;;;;;;;15.05;2.63;;;3.80;99.90;;;;;;5116548;28;20560;-88
2022/02/07 03:46:05;;;;;;;15.57;2.25;;;3.80;99.90;;;;;;5116356;28;20039;-89
2022/02/07 03:48:34;;;;;;;14.75;1.85;;;3.70;99.90;;;;;;5117008;28;20023;-89
2022/02/07 03:50:59;;;;;;;11.82;1.98;;;3.80;99.90;;;;;;5117105;28;20036;-89
2022/02/07 03:53:26;;;;;;;14.70;1.90;;;3.80;99.90;;;;;;5116734;28;20043;-89
2022/02/07 03:55:52;;;;;;;18.50;3.47;;;3.90;99.90;;;;;;5117145;28;20023;-89
2022/02/07 03:58:21;;;;;;;18.20;2.38;;;4.00;99.90;;;;;;5116820;28;20051;-90
2022/02/07 04:00:48;;;;;;;10.32;2.55;;;4.00;99.90;;;;;;5116987;28;20027;-89
2022/02/07 04:03:16;;;;;;;16.60;2.75;;;4.10;99.90;;;;;;5117002;28;20031;-90
2022/02/07 04:05:57;;;;;;;12.70;2.15;;;4.10;99.90;;;;;;5117148;28;20019;-89
2022/02/07 04:08:29;;;;;;;13.82;2.08;;;4.20;99.90;;;;;;5116849;28;20134;-89
2022/02/07 04:13:41;;;;;;;14.02;2.75;;;4.30;99.90;;;;;;5135149;28;20046;-90
2022/02/07 04:16:07;;;;;;;22.58;2.58;;;4.40;99.90;;;;;;5116950;28;20080;-90
2022/02/07 04:18:50;;;;;;;13.88;2.50;;;4.40;99.90;;;;;;5117050;28;20046;-91
2022/02/07 04:21:16;;;;;;;17.88;2.72;;;4.50;99.90;;;;;;5117020;28;20023;-91
2022/02/07 04:23:41;;;;;;;15.48;3.22;;;4.50;99.90;;;;;;5117012;28;20455;-90
2022/02/07 04:26:07;;;;;;;13.77;2.28;;;4.60;99.90;;;;;;5116993;28;20060;-90
2022/02/07 04:28:33;;;;;;;20.45;3.63;;;4.50;99.90;;;;;;5117156;28;20035;-91
2022/02/07 04:30:58;;;;;;;18.98;3.53;;;4.60;99.90;;;;;;5117076;28;20366;-90
2022/02/07 04:33:24;;;;;;;14.05;2.60;;;4.60;99.90;;;;;;5116915;28;20039;-89
2022/02/07 04:35:49;;;;;;;19.58;3.10;;;4.70;99.90;;;;;;5116589;28;20026;-89
2022/02/07 04:38:15;;;;;;;18.55;2.63;;;4.70;99.90;;;;;;5115976;28;20036;-89
2022/02/07 04:40:41;;;;;;;15.48;2.58;;;4.90;99.90;;;;;;5116853;28;20545;-90
2022/02/07 04:43:09;;;;;;;16.15;2.65;;;4.90;99.90;;;;;;5116951;28;20034;-90
2022/02/07 04:53:37;;;;;;;15.30;2.20;;;5.00;99.90;;;;;;5134710;28;20481;-90
2022/02/07 05:04:00;;;;;;;13.52;2.55;;;5.20;99.90;;;;;;5119390;28;20465;-89
2022/02/07 05:14:40;;;;;;;16.52;2.28;;;5.20;99.90;;;;;;5117856;28;20048;-89
2022/02/07 05:17:08;;;;;;;19.20;2.67;;;5.20;99.90;;;;;;5099519;28;20061;-90
2022/02/07 05:19:34;;;;;;;21.65;2.97;;;5.20;99.90;;;;;;5099613;28;20499;-89
2022/02/07 05:21:59;;;;;;;24.17;4.28;;;5.30;99.90;;;;;;5099086;28;20122;-89
2022/02/07 05:24:25;;;;;;;20.50;3.63;;;5.30;99.90;;;;;;5099185;28;20027;-88
2022/02/07 05:26:51;;;;;;;18.58;2.92;;;5.30;99.90;;;;;;5099062;28;20043;-89
2022/02/07 05:29:16;;;;;;;15.05;3.38;;;5.30;99.90;;;;;;5099126;28;20038;-90
2022/02/07 05:31:42;;;;;;;18.70;2.75;;;5.30;99.90;;;;;;5099460;28;20101;-90
2022/02/07 05:34:08;;;;;;;18.15;2.58;;;5.30;99.90;;;;;;5097968;28;20039;-90
2022/02/07 05:36:41;;;;;;;21.52;2.92;;;5.30;99.90;;;;;;5098420;28;20024;-89
2022/02/07 05:39:07;;;;;;;12.85;2.10;;;5.40;99.90;;;;;;5097737;28;20035;-89
2022/02/07 05:41:33;;;;;;;12.05;2.17;;;5.40;99.90;;;;;;5097723;28;20028;-90
2022/02/07 05:43:58;;;;;;;18.17;2.85;;;5.40;99.90;;;;;;5097407;28;20084;-88
2022/02/07 05:46:24;;;;;;;14.88;2.58;;;5.40;99.90;;;;;;5096875;28;20020;-89
2022/02/07 05:48:50;;;;;;;15.05;2.25;;;5.40;99.90;;;;;;5096677;28;20023;-90
2022/02/07 05:51:15;;;;;;;13.43;2.05;;;5.40;99.90;;;;;;5096248;28;20481;-89
2022/02/07 05:53:41;;;;;;;16.90;3.38;;;5.30;99.90;;;;;;5096636;28;20047;-88
2022/02/07 05:56:07;;;;;;;12.48;2.28;;;5.30;99.90;;;;;;5096592;28;20024;-89
2022/02/07 05:58:33;;;;;;;21.35;3.33;;;5.30;99.90;;;;;;5096512;28;20063;-89
2022/02/07 06:00:58;;;;;;;19.08;3.20;;;5.20;99.90;;;;;;5097873;28;20115;-89
2022/02/07 06:03:24;;;;;;;12.57;2.55;;;5.30;99.90;;;;;;5097614;28;20039;-90
2022/02/07 06:05:50;;;;;;;13.30;2.58;;;5.20;99.90;;;;;;5097600;28;20474;-91
2022/02/07 06:08:16;;;;;;;17.58;2.97;;;5.10;99.90;;;;;;5097841;28;20123;-90
2022/02/07 06:10:44;;;;;;;17.13;3.15;;;5.10;99.90;;;;;;5097983;28;20142;-91
2022/02/07 06:13:16;;;;;;;13.95;3.42;;;5.00;99.90;;;;;;5096305;28;20492;-89
2022/02/07 06:15:42;;;;;;;19.00;3.60;;;5.10;99.90;;;;;;5095799;28;20032;-88
2022/02/07 06:18:08;;;;;;;17.45;2.97;;;5.00;99.90;;;;;;5097329;28;20076;-89
2022/02/07 06:20:34;;;;;;;15.43;3.22;;;5.10;99.90;;;;;;5097618;28;20447;-88
2022/02/07 06:22:59;;;;;;;11.55;2.05;;;5.00;99.90;;;;;;5115208;28;20039;-90
2022/02/07 06:25:27;;;;;;;14.55;2.88;;;5.00;99.90;;;;;;5096242;28;20172;-88
2022/02/07 06:27:52;;;;;;;12.70;2.03;;;5.00;99.90;;;;;;5096594;28;20058;-88
2022/02/07 06:30:18;;;;;;;16.77;2.17;;;5.00;99.90;;;;;;5095094;28;20477;-90
2022/02/07 06:32:44;;;;;;;12.15;2.08;;;4.90;99.90;;;;;;5097477;28;20066;-89
2022/02/07 06:35:10;;;;;;;14.63;2.60;;;4.90;99.90;;;;;;5101799;28;20034;-89
2022/02/07 06:37:36;;;;;;;17.88;2.75;;;4.80;99.90;;;;;;5102400;28;20032;-90
2022/02/07 06:40:04;;;;;;;15.45;2.45;;;4.80;99.90;;;;;;5103487;28;20652;-87
2022/02/07 06:42:30;;;;;;;14.40;2.83;;;4.70;99.90;;;;;;5116557;28;20035;-87
2022/02/07 06:44:55;;;;;;;12.10;2.08;;;4.80;99.90;;;;;;5116661;28;20038;-88
2022/02/07 06:47:21;;;;;;;15.80;2.50;;;4.70;99.90;;;;;;5116907;28;20109;-88
2022/02/07 06:49:47;;;;;;;12.95;2.45;;;4.70;99.90;;;;;;5117852;28;20036;-89
2022/02/07 06:52:12;;;;;;;16.20;2.67;;;4.70;99.90;;;;;;5117378;28;20043;-87
2022/02/07 06:54:38;;;;;;;16.20;2.33;;;4.60;99.90;;;;;;5132064;28;20023;-87
2022/02/07 06:57:04;;;;;;;14.60;2.78;;;4.70;99.90;;;;;;5118576;28;20099;-90
2022/02/07 06:59:34;;;;;;;13.73;2.97;;;4.70;99.90;;;;;;5136784;27;20061;-89
2022/02/07 07:02:00;;;;;;;9.18;2.03;;;4.70;99.90;;;;;;5135270;27;20046;-88
2022/02/07 07:04:29;;;;;;;11.73;2.20;;;4.60;99.90;;;;;;5128299;27;20084;-91
2022/02/07 07:06:54;;;;;;;14.15;2.20;;;4.60;99.90;;;;;;5119534;27;20023;-88
2022/02/07 07:09:20;;;;;;;19.75;2.90;;;4.50;99.90;;;;;;5117473;27;20088;-88
2022/02/07 07:11:45;;;;;;;10.70;2.10;;;4.50;99.90;;;;;;5117410;27;20484;-92
2022/02/07 07:14:28;;;;;;;15.35;2.28;;;4.40;99.90;;;;;;5123611;27;20031;-90
2022/02/07 07:16:55;;;;;;;11.98;2.22;;;4.50;99.90;;;;;;5116986;27;20052;-89
2022/02/07 07:19:21;;;;;;;11.65;2.10;;;4.50;99.90;;;;;;5135219;27;20110;-91
2022/02/07 07:21:47;;;;;;;11.10;2.42;;;4.50;99.90;;;;;;5118192;27;20030;-91
2022/02/07 07:24:14;;;;;;;12.18;2.00;;;4.40;99.90;;;;;;5116111;27;20031;-91
2022/02/07 07:26:40;;;;;;;15.52;3.15;;;4.40;99.90;;;;;;5116937;27;20465;-91
2022/02/07 07:29:17;;;;;;;12.63;2.92;;;4.40;99.90;;;;;;5116999;27;20038;-90
2022/02/07 07:31:47;;;;;;;14.02;3.80;;;4.30;99.90;;;;;;5117651;28;20031;-93
2022/02/07 07:34:17;;;;;;;12.27;2.40;;;4.40;99.90;;;;;;5117721;28;20042;-90
2022/02/07 07:36:44;;;;;;;16.33;3.05;;;4.40;99.90;;;;;;5117000;27;20486;-90
2022/02/07 07:39:12;;;;;;;14.75;2.40;;;4.40;99.90;;;;;;5117234;28;20039;-91
2022/02/07 07:41:40;;;;;;;13.55;2.45;;;4.40;99.90;;;;;;5117716;28;20386;-91
2022/02/07 07:44:06;;;;;;;19.15;2.55;;;4.40;99.90;;;;;;5135966;28;20062;-89
2022/02/07 07:46:32;;;;;;;13.05;2.42;;;4.40;99.90;;;;;;5120599;28;20477;-92
2022/02/07 07:49:03;;;;;;;12.43;1.90;;;4.40;99.90;;;;;;5123009;28;20035;-90
2022/02/07 07:54:16;;;;;;;15.23;2.22;;;4.40;99.90;;;;;;5146264;28;20035;-89
2022/02/07 08:02:14;;;;;;;14.95;2.53;;;4.40;99.90;;;;;;5115162;28;20089;-90
2022/02/07 08:04:42;;;;;;;12.35;2.80;;;4.50;99.90;;;;;;5097173;28;20027;-90
2022/02/07 08:07:25;;;;;;;18.88;2.92;;;4.50;99.90;;;;;;5096565;28;20058;-89
2022/02/07 08:12:34;;;;;;;13.30;2.50;;;4.70;99.90;;;;;;5103226;28;20035;-90
2022/02/07 08:15:00;;;;;;;13.85;2.33;;;4.60;99.90;;;;;;5096633;28;20028;-89
2022/02/07 08:17:26;;;;;;;16.55;2.63;;;4.70;99.90;;;;;;5096015;28;20059;-89
2022/02/07 08:19:52;;;;;;;15.95;2.45;;;4.70;99.90;;;;;;5097165;28;20060;-91
2022/02/07 08:22:19;;;;;;;20.65;3.38;;;4.80;99.90;;;;;;5098086;28;20028;-88
2022/02/07 08:24:45;;;;;;;17.30;3.08;;;4.90;99.90;;;;;;5096939;28;20068;-91
2022/02/07 08:27:11;;;;;;;17.52;3.78;;;5.10;99.90;;;;;;5096911;28;20043;-90
2022/02/07 08:29:37;;;;;;;17.35;2.75;;;5.30;99.90;;;;;;5097395;28;20028;-90
2022/02/07 08:32:04;;;;;;;16.52;2.90;;;5.40;99.90;;;;;;5100154;28;20032;-91
2022/02/07 08:34:29;;;;;;;15.93;3.03;;;5.40;99.90;;;;;;5100747;28;20374;-91
2022/02/07 08:36:58;;;;;;;17.40;2.92;;;5.40;99.90;;;;;;5100195;28;20118;-90
2022/02/07 08:39:24;;;;;;;11.70;2.40;;;5.40;99.90;;;;;;5100219;28;20490;-90
2022/02/07 08:41:49;;;;;;;19.38;2.65;;;5.50;99.90;;;;;;5099729;28;20122;-91
2022/02/07 08:44:17;;;;;;;13.88;2.75;;;5.50;99.90;;;;;;5099195;28;20059;-90
2022/02/07 08:46:43;;;;;;;18.88;3.78;;;5.50;99.90;;;;;;5100508;28;20031;-90
2022/02/07 08:49:09;;;;;;;14.05;2.90;;;5.60;99.90;;;;;;5099982;28;20625;-88
2022/02/07 08:51:35;;;;;;;13.70;2.70;;;5.60;99.90;;;;;;5118121;28;20032;-90
2022/02/07 08:54:04;;;;;;;16.67;3.83;;;5.60;99.90;;;;;;5099562;28;20043;-90
2022/02/07 08:56:49;;;;;;;15.40;3.15;;;5.70;99.90;;;;;;5100787;28;20476;-90
2022/02/07 08:59:15;;;;;;;16.98;3.50;;;5.60;99.90;;;;;;5114578;28;20504;-92
2022/02/07 09:01:47;;;;;;;20.70;2.92;;;5.70;99.90;;;;;;5123020;28;20561;-90
2022/02/07 09:09:44;;;;;;;19.80;3.30;;;6.00;99.90;;;;;;5075345;28;20032;-92
2022/02/07 09:12:11;;;;;;;21.33;4.20;;;6.10;99.90;;;;;;5098674;28;20040;-91
2022/02/07 09:14:43;;;;;;;18.45;3.08;;;6.20;99.90;;;;;;5116145;28;20081;-93
2022/02/07 09:17:10;;;;;;;21.55;4.03;;;6.30;99.90;;;;;;5118507;28;20031;-92
2022/02/07 09:19:36;;;;;;;19.35;3.03;;;6.40;99.90;;;;;;5120199;28;20059;-91
2022/02/07 09:22:04;;;;;;;24.90;4.40;;;6.60;99.90;;;;;;5117942;28;20028;-91
2022/02/07 09:24:31;;;;;;;21.75;3.13;;;7.00;99.90;;;;;;5117807;28;20031;-91
2022/02/07 09:26:57;;;;;;;15.30;3.13;;;7.90;99.90;;;;;;5117791;28;20039;-92
2022/02/07 09:29:25;;;;;;;19.33;3.00;;;8.90;99.90;;;;;;5118874;28;20061;-91
2022/02/07 09:31:54;;;;;;;21.98;4.05;;;9.70;99.90;;;;;;5119701;28;20038;-91
2022/02/07 09:34:19;;;;;;;19.20;3.97;;;10.50;99.90;;;;;;5123527;28;20031;-93
2022/02/07 09:36:45;;;;;;;21.52;4.22;;;11.10;99.90;;;;;;5127166;28;20087;-88
2022/02/07 09:39:11;;;;;;;25.63;4.45;;;11.70;99.90;;;;;;5124845;28;20039;-91
2022/02/07 09:41:37;;;;;;;18.35;4.07;;;12.20;99.90;;;;;;5124828;28;20031;-91
2022/02/07 09:44:03;;;;;;;15.88;2.92;;;12.60;99.90;;;;;;5125722;28;20061;-89
2022/02/07 09:46:45;;;;;;;18.33;3.70;;;12.80;99.90;;;;;;5120746;28;20031;-90
2022/02/07 09:49:18;;;;;;;18.77;3.40;;;13.20;99.90;;;;;;5119585;28;20030;-91
2022/02/07 09:51:45;;;;;;;17.80;3.58;;;13.40;99.90;;;;;;5115584;28;20030;-92
2022/02/07 09:54:18;;;;;;;17.90;3.47;;;13.60;99.90;;;;;;5117426;28;20405;-91
2022/02/07 09:56:46;;;;;;;16.38;3.40;;;14.00;99.90;;;;;;5118289;28;20028;-92
2022/02/07 09:59:14;;;;;;;15.10;3.17;;;14.30;99.90;;;;;;5117421;28;20128;-91
2022/02/07 10:01:45;;;;;;;13.45;2.97;;;14.50;99.90;;;;;;5117617;28;20031;-90
2022/02/07 10:04:29;;;;;;;16.80;3.90;;;14.80;99.90;;;;;;5116613;28;20119;-92
2022/02/07 10:12:07;;;;;;;16.70;3.10;;;14.40;99.90;;;;;;5119535;28;20040;-90
2022/02/07 10:14:44;;;;;;;14.43;2.97;;;13.50;99.90;;;;;;5117422;28;20066;-90
2022/02/07 10:37:02;;;;;;;18.50;3.13;;;8.50;99.90;;;;;;5116150;28;20022;-91
2022/02/07 10:39:34;;;;;;;18.80;2.95;;;8.40;99.90;;;;;;5115607;28;20032;-91
2022/02/07 10:42:31;;;;;;;14.20;2.78;;;8.40;99.90;;;;;;5114638;28;20492;-92
2022/02/07 10:45:01;;;;;;;16.35;2.92;;;8.50;99.90;;;;;;5114889;28;20031;-89
2022/02/07 10:47:38;;;;;;;17.80;2.92;;;8.90;99.90;;;;;;5114452;28;20023;-91
2022/02/07 10:50:15;;;;;;;20.45;2.95;;;9.60;99.90;;;;;;5114464;28;20024;-90
2022/02/07 10:52:56;;;;;;;13.43;2.63;;;10.60;99.90;;;;;;5113918;28;20040;-90
2022/02/07 10:55:25;;;;;;;9.63;2.28;;;11.70;99.90;;;;;;5108988;28;20038;-91
2022/02/07 10:57:54;;;;;;;10.10;2.33;;;12.50;99.90;;;;;;5093054;28;20051;-92
2022/02/07 11:00:24;;;;;;;13.70;2.42;;;13.40;99.90;;;;;;5101419;28;20785;-92
2022/02/07 11:03:15;;;;;;;10.05;2.33;;;14.00;99.90;;;;;;5113003;28;20103;-93
2022/02/07 11:05:49;;;;;;;13.60;2.47;;;14.50;99.90;;;;;;5113903;28;20042;-93
2022/02/07 11:08:24;;;;;;;12.45;2.58;;;14.70;99.90;;;;;;5114673;28;20055;-93
2022/02/07 11:16:12;;;;;;;10.40;2.35;;;14.10;99.90;;;;;;5115015;28;20143;-92
2022/02/07 11:18:59;;;;;;;8.23;1.95;;;13.30;99.90;;;;;;5115356;28;20031;-93
2022/02/07 11:21:49;;;;;;;8.25;1.80;;;12.30;99.90;;;;;;5114677;28;20024;-92
2022/02/07 11:27:35;;;;;;;10.23;2.08;;;12.00;99.90;;;;;;5119674;28;20040;-90
2022/02/07 11:30:09;;;;;;;10.88;2.10;;;12.30;99.90;;;;;;5098449;28;20032;-91
2022/02/07 11:35:14;;;;;;;8.73;1.58;;;14.10;99.90;;;;;;5112926;28;20377;-91
2022/02/07 11:37:40;;;;;;;10.15;2.03;;;14.70;99.90;;;;;;5112259;28;20039;-89
2022/02/07 11:40:28;;;;;;;10.70;2.15;;;14.50;99.90;;;;;;5112075;28;20027;-91
2022/02/07 11:43:10;;;;;;;8.73;2.00;;;13.40;99.90;;;;;;5112359;28;20545;-88
2022/02/07 11:45:58;;;;;;;11.25;2.75;;;12.20;99.90;;;;;;5092613;28;20032;-90
2022/02/07 11:48:29;;;;;;;12.90;1.88;;;11.30;99.90;;;;;;5092194;28;20508;-90
2022/02/07 11:51:01;;;;;;;13.65;2.58;;;10.60;99.90;;;;;;5104263;28;20036;-92
2022/02/07 11:53:44;;;;;;;13.53;2.30;;;10.20;99.90;;;;;;5114666;28;20103;-91
2022/02/07 11:56:48;;;;;;;9.77;1.80;;;9.90;99.90;;;;;;5120888;28;20038;-88
2022/02/07 11:59:23;;;;;;;;;;;9.80;99.90;;;;;;5119844;28;20054;-87
2022/02/07 12:02:02;;;;;;;8.65;2.00;;;10.70;99.90;;;;;;5123665;28;19990;-88
2022/02/07 21:33:32;;;;;;;8.05;2.97;;;5.90;99.90;;;;;;5132020;27;20358;-90
2022/02/07 21:36:00;;;;;;;12.82;2.97;;;5.90;99.90;;;;;;5112417;28;20015;-89
2022/02/07 21:38:27;;;;;;;10.35;2.70;;;5.90;99.90;;;;;;5110886;28;20508;-87
2022/02/07 21:40:56;;;;;;;9.60;2.83;;;5.90;99.90;;;;;;5094619;28;20119;-89
2022/02/07 21:43:22;;;;;;;8.27;2.50;;;6.00;99.90;;;;;;5111441;28;20373;-88
2022/02/07 21:46:05;;;;;;;6.78;2.47;;;6.00;99.90;;;;;;5112305;28;20023;-89
2022/02/07 21:48:31;;;;;;;10.13;2.90;;;6.00;99.90;;;;;;5112492;28;20047;-91
2022/02/07 21:50:56;;;;;;;8.73;2.60;;;6.00;99.90;;;;;;5110945;28;20031;-90
2022/02/07 21:53:23;;;;;;;8.82;2.63;;;6.00;99.90;;;;;;5110752;28;20473;-87
2022/02/07 21:55:48;;;;;;;13.85;3.15;;;6.00;99.90;;;;;;5089791;28;20033;-87
2022/02/07 21:58:14;;;;;;;8.43;2.60;;;6.00;99.90;;;;;;5089716;28;20032;-88
2022/02/07 22:00:40;;;;;;;10.73;2.88;;;6.10;99.90;;;;;;5090588;28;20024;-89
2022/02/07 22:03:05;;;;;;;10.48;3.60;;;6.10;99.90;;;;;;5091020;28;20024;-88
2022/02/07 22:05:31;;;;;;;11.77;3.55;;;6.10;99.90;;;;;;5089692;28;20470;-89
2022/02/07 22:07:56;;;;;;;13.60;3.30;;;6.20;99.90;;;;;;5089996;28;20402;-87
2022/02/07 22:10:22;;;;;;;11.02;2.88;;;6.20;99.90;;;;;;5091256;28;20028;-88
2022/02/07 22:15:41;;;;;;;12.07;3.42;;;6.20;99.90;;;;;;5091464;28;20378;-88
2022/02/07 22:18:11;;;;;;;17.65;3.42;;;6.30;99.90;;;;;;5090601;28;20382;-89
2022/02/07 22:20:44;;;;;;;11.52;3.05;;;6.30;99.90;;;;;;5094191;28;20020;-87
2022/02/07 22:23:12;;;;;;;8.18;2.78;;;6.30;99.90;;;;;;5093768;28;20084;-88
2022/02/07 22:25:42;;;;;;;13.68;3.40;;;6.30;99.90;;;;;;5093624;28;20029;-87
2022/02/07 22:28:08;;;;;;;12.75;3.60;;;6.30;99.90;;;;;;5095346;28;20367;-89
2022/02/07 22:30:37;;;;;;;13.88;3.40;;;6.30;99.90;;;;;;5097640;28;20020;-88
2022/02/07 22:33:14;;;;;;;13.32;2.95;;;6.30;99.90;;;;;;5092164;28;20047;-88
2022/02/07 22:35:42;;;;;;;8.68;2.95;;;6.40;99.90;;;;;;5090651;28;20024;-88
2022/02/07 22:38:08;;;;;;;12.02;3.15;;;6.40;99.90;;;;;;5090214;28;20020;-89
2022/02/07 22:40:34;;;;;;;16.27;4.22;;;6.40;99.90;;;;;;5089736;28;20066;-90
2022/02/07 22:43:00;;;;;;;13.88;3.83;;;6.40;99.90;;;;;;5085143;28;20020;-89
2022/02/07 22:45:26;;;;;;;10.88;3.63;;;6.40;99.90;;;;;;5075883;28;20025;-88
2022/02/07 22:47:52;;;;;;;13.88;4.07;;;6.40;99.90;;;;;;5075950;28;20025;-90
2022/02/07 22:50:19;;;;;;;17.58;3.95;;;6.50;99.90;;;;;;5076109;28;20033;-90
2022/02/07 22:52:49;;;;;;;13.88;3.92;;;6.50;99.90;;;;;;5075890;28;20528;-90
2022/02/07 22:55:16;;;;;;;14.63;3.45;;;6.50;99.90;;;;;;5076089;28;20025;-90
2022/02/07 22:57:42;;;;;;;13.55;3.47;;;6.50;99.90;;;;;;5076250;28;20046;-90
2022/02/07 23:00:13;;;;;;;13.85;3.72;;;6.50;99.90;;;;;;5076071;28;20108;-89
2022/02/07 23:02:38;;;;;;;14.90;4.43;;;6.50;99.90;;;;;;5075571;28;20508;-88
2022/02/07 23:05:07;;;;;;;17.35;3.85;;;6.50;99.90;;;;;;5075710;28;20032;-90
2022/02/07 23:07:40;;;;;;;14.85;3.30;;;6.60;99.90;;;;;;5076030;28;20024;-90
2022/02/07 23:12:42;;;;;;;14.35;3.80;;;6.60;99.90;;;;;;5076630;28;20036;-89
2022/02/07 23:18:14;;;;;;;12.43;4.10;;;6.60;99.90;;;;;;5079257;28;20033;-90
2022/02/07 23:31:53;;;;;;;15.00;4.30;;;6.70;99.90;;;;;;5080423;28;20149;-88
2022/02/07 23:34:33;;;;;;;17.63;3.13;;;6.70;99.90;;;;;;5092474;28;20021;-87
2022/02/07 23:37:14;;;;;;;12.27;3.78;;;6.70;99.90;;;;;;5090782;28;20028;-90
2022/02/07 23:42:07;;;;;;;19.10;4.43;;;6.70;99.90;;;;;;5088616;28;20101;-88
2022/02/07 23:44:36;;;;;;;17.05;4.65;;;6.70;99.90;;;;;;5097548;28;20021;-88
2022/02/07 23:47:15;;;;;;;16.80;4.10;;;6.70;99.90;;;;;;5090423;28;20021;-90
2022/02/07 23:52:31;;;;;;;19.65;4.35;;;6.70;99.90;;;;;;5096088;28;20020;-87
2022/02/07 23:55:14;;;;;;;14.65;4.40;;;6.70;99.90;;;;;;5095240;28;20035;-90
2022/02/07 23:58:26;;;;;;;16.53;4.63;;;6.70;99.90;;;;;;5110438;28;20047;-91
